EmailTwitter


Surface observations / France / LFBO (07630)

Regions: Quebec | Canada | USA | Europe | France | UK | Elsewhere
Station
Display
Info & Location for LFBO (07630) | Help decoding METAR

Weather Conditions observed on 2018/02/23 at 17:30 UTC at TOULOUSE/BLAGNAC, FR (LFBO)

Sky conditions: overcast.

Temperature: 4.0 Celsius.

Dewpoint: -4.0 Celsius.

Relative Humidity: 56%

Winds: Northwest at 7 km/h or 4 knots.

Mean Sea level Pressure: 100.80 kilopascals.

Horizontal visibility: 6.21 statute miles or 9.94 kilometers.

Height of the Ceiling: 1189 metres ( 3900 feet ).

Coded METAR:

LFBO 231730Z AUTO 30004KT 240V340 9999 FEW014 OVC039 04/M04 Q1008 NOSIG=